Airfield :
LOGIN :

Register | Disclaimer

   EN    FR    IT 

 










Legend :    VFR   Marginal VFR   IFR   Intensive IFR   Very Intensive IFR
Visi :
Ceiling :
>= 8 km
>= 3000ft
5 to 8 km
1000 to 3000 ft
1500m to 5 km
500 to 1000 ft
800 to 1500m
200 to 500 ft
< 800m
< 200 ft
Symbols :   Thunderstorms  Fog  Heavy snow  Heavy precipitations  Wind > 20 kt
SIGMETs :     Misc.  Thunderstorms  Icing  Turbulence  Mountain Waves  Volcanic Ashes






- Airport Elevation : 124 ft
- IATA code : AVN


LFMV - Avignon Caumont

CURRENT METAR :
  • 130200Z AUTO 32012G24KT 290V350 9999 TS SCT042/// BKN050/// OVC240/// ///CB 24/14 Q1016

EXPIRED METARs :
  • 130130Z AUTO 10004KT 9999 ///CB 21/14 Q1015
  • 130100Z AUTO VRB02KT 9999 ///CB 22/14 Q1014
  • 130030Z AUTO VRB03KT CAVOK 23/14 Q1015
  • 130000Z AUTO 35005KT CAVOK 22/14 Q1014
  • 122330Z AUTO VRB03KT CAVOK 25/13 Q1014

TAF TAF LFMV
Valid from the 12 at 15:00 until the 13 at 15:00 UTC


121400Z 1215/1315 18010KT CAVOK
TEMPO 1215/1218 17015G25KT
BECMG 1219/1221 VRB03KT
PROB40
TEMPO 1221/1306 SHRA SCT090TCU
PROB30
TEMPO 1221/1306 -TSRA SCT080CB
BECMG 1309/1311 20010KT
ATIS : +33 4 90 84 32 84



MET'MAP, your aeronautical weather chart ! - Copyright ORBIFLY December 2007 - Disclaimer

ORBIFLY MET'MAP TEAM :

Programming & Development : Alexandra Zaïnal
Concept & original design : Baudouin d'Aumeries
Assistance for programming : Marc-Olivier Méhu
Technical & hardware support : Manuel Goepfert

Contact : metmap@orbifly.com




SOURCES & CREDITS :

   NOAA